Current | Forecast
Updated: 7:30 AM +05 on August 21, 2017
Observed at Petropavlosk South Airpor, Kazakhstan
Temperature 59°F
Humidity 77%
Dew Point 52°F
Wind SW at 4 mph
Pressure 30.21 in (Steady)
Conditions Clear
Visibility -
UV N/A
Clouds
Yesterday's Maximum 77°F
Yesterday's Minimum 55°F approx.
Yesterday's Cooling Degree Days 1 approx.
Sunrise6:14 AM +06
Sunset8:47 PM +06
Moon Rise5:21 AM +06
Moon Set8:38 PM +06
Moon PhaseMoon Phase
Waning Crescent
Raw METARMETAR UACP 210230Z 23002MPS CAVOK 15/11 Q1023 NOSIG RMK QFE755/1006


Monday
. High: 64° F.
Tuesday
. High: 71° F.
Wednesday
. High: 64° F.
Thursday
. High: 69° F.
Friday
. High: 57° F.
Saturday
. High: 60° F.
Sunday
. High: 48° F.
Monday
. High: 55° F.

Units: English | Metric

Find the Weather for any City, State or Zipcode, or Country:

U.S. State List | Severe Weather | Tropical Storms | Ski Conditions
United States | Canada | Central America | South America | Asia | Europe | Australia | Africa | Islands

Weather Underground

© Copyright 2017
The Weather Company, LLC